Terminal Aerodrome Forecast
Issued by NWS

Home | Current Version | Previous Version | Text Only | Print | Product List | Glossary On
Versions: 1 2 3 4 5 6 7 8 9 10 11 12
627
FTAK31 PAJN 201728
TAFAKT
TAF
PAKT 201728Z 2018/2118 33008KT P6SM BKN070
     FM211200 32006KT P6SM SCT050
      AMD LTD TO CLD VIS AND WIND 2106/2115=

USA.gov is the U.S. government's official web portal to all federal, state and local government web resources and services.